Time;durP1;ratioP1;P1;durP2;ratioP2;P2;SDS_P1;SDS_P2;PMS_P1;PMS_P2;Temp;Humidity;BMP_temperature;BMP_pressure;BME280_temperature;BME280_humidity;BME280_pressure;Samples;Min_cycle;Max_cycle;Signal;HPM_P1;HPM_P2
2022/01/18 00:01:19;;;;;;;29.70;15.67;;;8.00;99.90;;;;;;5035432;28;20292;-72
2022/01/18 00:03:45;;;;;;;38.10;16.07;;;7.90;99.90;;;;;;5035156;28;20308;-72
2022/01/18 00:06:11;;;;;;;34.33;16.40;;;7.90;99.90;;;;;;5035190;28;20209;-71
2022/01/18 00:08:37;;;;;;;39.17;16.23;;;8.00;99.90;;;;;;5035408;28;20198;-72
2022/01/18 00:11:03;;;;;;;40.67;16.70;;;8.00;99.90;;;;;;5034926;28;20173;-71
2022/01/18 00:18:36;;;;;;;33.80;16.27;;;8.00;99.90;;;;;;5035128;28;20174;-71
2022/01/18 00:23:33;;;;;;;36.73;16.83;;;7.90;99.90;;;;;;5034750;28;20210;-72
2022/01/18 00:25:58;;;;;;;33.73;18.10;;;8.00;99.90;;;;;;5034406;28;20213;-71
2022/01/18 00:28:27;;;;;;;38.20;17.33;;;7.90;99.90;;;;;;5034642;28;20174;-71
2022/01/18 00:33:57;;;;;;;46.43;18.47;;;8.10;99.90;;;;;;5034922;28;20200;-72
2022/01/18 00:36:37;;;;;;;38.60;18.53;;;8.00;99.90;;;;;;5033750;28;20257;-71
2022/01/18 00:39:06;;;;;;;36.43;18.73;;;8.10;99.90;;;;;;5034491;28;20188;-71
2022/01/18 00:41:32;;;;;;;34.70;19.53;;;8.00;99.90;;;;;;5034223;28;20222;-71
2022/01/18 00:43:58;;;;;;;40.17;20.07;;;8.00;99.90;;;;;;5034629;28;20694;-71
2022/01/18 00:46:23;;;;;;;40.03;19.27;;;8.10;99.90;;;;;;5034462;28;20541;-72
2022/01/18 00:48:52;;;;;;;43.00;19.57;;;8.10;99.90;;;;;;5034566;28;20662;-72
2022/01/18 00:51:18;;;;;;;40.63;20.07;;;8.10;99.90;;;;;;5034360;28;20177;-70
2022/01/18 00:53:46;;;;;;;33.70;18.33;;;8.20;99.90;;;;;;5034160;28;20672;-71
2022/01/18 00:58:40;;;;;;;39.47;20.07;;;8.20;99.90;;;;;;5034640;28;20635;-70
2022/01/18 01:01:07;;;;;;;40.50;19.37;;;8.30;99.90;;;;;;5034140;28;20517;-71
2022/01/18 01:03:33;;;;;;;41.93;19.90;;;8.20;99.90;;;;;;5034164;28;20236;-72
2022/01/18 01:06:00;;;;;;;42.20;19.73;;;8.30;99.90;;;;;;5034172;28;20205;-71
2022/01/18 01:08:25;;;;;;;46.40;19.80;;;8.30;99.90;;;;;;5034018;28;20277;-70
2022/01/18 01:10:51;;;;;;;42.33;20.83;;;8.30;99.90;;;;;;5033383;28;20180;-71
2022/01/18 01:13:17;;;;;;;39.73;19.60;;;8.20;99.90;;;;;;5033880;28;20273;-71
2022/01/18 01:19:16;;;;;;;43.73;20.23;;;8.00;99.90;;;;;;5034348;28;20185;-71
2022/01/18 01:41:41;;;;;;;54.17;22.43;;;7.80;99.90;;;;;;5033928;28;20253;-71
2022/01/18 01:45:19;;;;;;;51.93;22.87;;;7.90;99.90;;;;;;5033250;28;20223;-71
2022/01/18 01:47:50;;;;;;;50.37;22.97;;;7.90;99.90;;;;;;5032947;28;20674;-71
2022/01/18 01:50:19;;;;;;;51.33;22.63;;;7.90;99.90;;;;;;5033186;28;20257;-71
2022/01/18 01:52:45;;;;;;;53.03;24.20;;;8.00;99.90;;;;;;5033135;28;20170;-72
2022/01/18 01:55:12;;;;;;;49.73;22.60;;;8.00;99.90;;;;;;5033145;28;20181;-71
2022/01/18 01:57:37;;;;;;;55.77;23.00;;;8.00;99.90;;;;;;5032053;28;20174;-71
2022/01/18 02:00:12;;;;;;;54.60;22.43;;;8.00;99.90;;;;;;5032105;28;20672;-71
2022/01/18 02:02:37;;;;;;;44.60;23.55;;;8.10;99.90;;;;;;5033156;28;20168;-71
2022/01/18 02:05:04;;;;;;;56.77;23.13;;;7.90;99.90;;;;;;5032961;28;20392;-71
2022/01/18 02:07:30;;;;;;;43.23;22.07;;;7.90;99.90;;;;;;5033277;28;20166;-71
2022/01/18 02:09:55;;;;;;;46.93;22.13;;;7.80;99.90;;;;;;5032738;28;20606;-71
2022/01/18 02:12:21;;;;;;;59.67;23.37;;;7.90;99.90;;;;;;5033084;28;20170;-71
2022/01/18 02:14:54;;;;;;;49.93;23.67;;;7.90;99.90;;;;;;5033128;28;20174;-71
2022/01/18 02:22:51;;;;;;;51.60;22.67;;;8.00;99.90;;;;;;5033056;28;20212;-71
2022/01/18 02:25:16;;;;;;;59.17;23.10;;;8.00;99.90;;;;;;5031529;28;20178;-73
2022/01/18 02:27:42;;;;;;;54.60;24.73;;;8.00;99.90;;;;;;5033181;28;20269;-71
2022/01/18 02:30:08;;;;;;;61.37;24.87;;;8.10;99.90;;;;;;5032966;28;20544;-71
2022/01/18 02:32:34;;;;;;;46.63;22.97;;;8.00;99.90;;;;;;5032860;28;20174;-71
2022/01/18 02:35:00;;;;;;;56.33;23.63;;;7.90;99.90;;;;;;5032746;28;20252;-71
2022/01/18 02:37:26;;;;;;;49.57;23.17;;;7.90;99.90;;;;;;5032698;28;20178;-71
2022/01/18 02:39:52;;;;;;;50.43;23.97;;;8.00;99.90;;;;;;5033051;28;20209;-71
2022/01/18 02:42:26;;;;;;;52.53;24.20;;;8.00;99.90;;;;;;5032868;28;20174;-71
2022/01/18 02:44:52;;;;;;;51.83;24.33;;;7.90;99.90;;;;;;5032681;28;20553;-71
2022/01/18 02:47:22;;;;;;;46.77;24.13;;;7.90;99.90;;;;;;5032717;28;20680;-71
2022/01/18 02:49:48;;;;;;;54.40;24.07;;;7.90;99.90;;;;;;5032678;28;20200;-71
2022/01/18 02:52:15;;;;;;;50.20;23.43;;;8.00;99.90;;;;;;5032396;28;20221;-71
2022/01/18 02:54:42;;;;;;;48.97;23.53;;;8.00;99.90;;;;;;5032881;28;20185;-71
2022/01/18 02:57:12;;;;;;;43.20;23.37;;;7.80;99.90;;;;;;5032779;28;20174;-69
2022/01/18 03:05:06;;;;;;;44.27;23.63;;;8.00;99.90;;;;;;5036376;28;20223;-70
2022/01/18 03:07:33;;;;;;;53.10;24.40;;;7.90;99.90;;;;;;5036128;28;20176;-70
2022/01/18 03:09:58;;;;;;;47.03;24.97;;;7.90;99.90;;;;;;5036396;28;20192;-70
2022/01/18 03:12:24;;;;;;;42.33;24.00;;;8.00;99.90;;;;;;5036294;28;20169;-71
2022/01/18 03:14:50;;;;;;;45.97;24.73;;;8.00;99.90;;;;;;5036139;28;20170;-71
2022/01/18 03:17:15;;;;;;;48.57;24.70;;;7.90;99.90;;;;;;5036205;28;20158;-71
2022/01/18 03:19:41;;;;;;;49.47;25.00;;;8.00;99.90;;;;;;5035941;28;20189;-70
2022/01/18 03:22:07;;;;;;;46.03;24.47;;;8.00;99.90;;;;;;5035679;28;20252;-71
2022/01/18 03:30:06;;;;;;;48.77;24.67;;;8.00;99.90;;;;;;5036273;28;20181;-70
2022/01/18 03:32:32;;;;;;;49.30;24.43;;;8.10;99.90;;;;;;5035500;28;20618;-71
2022/01/18 03:34:57;;;;;;;49.37;23.93;;;8.10;99.90;;;;;;5035322;28;20181;-70
2022/01/18 03:37:23;;;;;;;55.50;24.43;;;8.10;99.90;;;;;;5035808;28;20259;-71
2022/01/18 03:39:49;;;;;;;50.93;24.73;;;8.10;99.90;;;;;;5035846;28;20271;-71
2022/01/18 03:42:36;;;;;;;46.93;23.03;;;8.10;99.90;;;;;;5035514;28;20201;-70
2022/01/18 03:45:04;;;;;;;45.80;23.87;;;8.10;99.90;;;;;;5035494;28;20232;-71
2022/01/18 03:47:34;;;;;;;48.80;24.33;;;8.20;99.90;;;;;;5035652;28;20198;-70
2022/01/18 03:50:00;;;;;;;48.77;24.00;;;8.10;99.90;;;;;;5033755;28;20227;-70
2022/01/18 03:52:25;;;;;;;49.33;23.33;;;8.10;99.90;;;;;;5035414;28;20166;-71
2022/01/18 03:54:51;;;;;;;48.87;23.70;;;8.10;99.90;;;;;;5035323;28;20178;-70
2022/01/18 03:57:17;;;;;;;43.17;23.87;;;8.10;99.90;;;;;;5035717;28;20688;-71
2022/01/18 03:59:44;;;;;;;49.20;24.17;;;8.00;99.90;;;;;;5035187;28;20626;-71
2022/01/18 04:02:10;;;;;;;49.90;24.27;;;8.20;99.90;;;;;;5035140;28;20182;-71
2022/01/18 04:04:36;;;;;;;53.03;24.17;;;8.10;99.90;;;;;;5035174;28;20220;-71
2022/01/18 04:07:02;;;;;;;47.60;23.83;;;8.20;99.90;;;;;;5035320;28;20257;-71
2022/01/18 04:09:28;;;;;;;58.00;25.40;;;8.30;99.90;;;;;;5034929;28;20651;-71
2022/01/18 04:11:53;;;;;;;54.90;24.63;;;8.30;99.90;;;;;;5034975;28;20174;-71
2022/01/18 04:14:19;;;;;;;48.07;24.17;;;8.20;99.90;;;;;;5033438;28;20200;-70
2022/01/18 04:27:37;;;;;;;44.77;23.47;;;8.00;99.90;;;;;;5034522;28;20284;-70
2022/01/18 04:30:04;;;;;;;55.73;25.80;;;7.90;99.90;;;;;;5034686;28;20177;-71
2022/01/18 04:32:29;;;;;;;52.00;24.57;;;7.90;99.90;;;;;;5034564;28;20685;-70
2022/01/18 04:34:55;;;;;;;49.43;22.73;;;8.00;99.90;;;;;;5033561;28;20174;-71
2022/01/18 04:37:20;;;;;;;55.57;25.90;;;8.00;99.90;;;;;;5034711;28;20203;-71
2022/01/18 04:39:48;;;;;;;50.80;24.07;;;8.20;99.90;;;;;;5034484;28;20622;-70
2022/01/18 04:42:47;;;;;;;51.57;24.30;;;8.30;99.90;;;;;;5034249;28;20166;-71
2022/01/18 04:50:28;;;;;;;54.07;24.00;;;8.20;99.90;;;;;;5034831;28;20177;-71
2022/01/18 04:52:53;;;;;;;50.43;24.27;;;8.10;99.90;;;;;;5034184;28;20182;-71
2022/01/18 04:55:20;;;;;;;49.20;23.03;;;8.10;99.90;;;;;;5033683;28;20181;-70
2022/01/18 04:57:52;;;;;;;48.10;24.30;;;8.20;99.90;;;;;;5033943;28;20204;-71
2022/01/18 05:00:19;;;;;;;62.43;24.50;;;8.20;99.90;;;;;;5032798;28;20244;-70
2022/01/18 05:02:47;;;;;;;52.73;23.97;;;8.20;99.90;;;;;;5033528;28;20162;-71
2022/01/18 05:05:22;;;;;;;48.73;23.57;;;8.30;99.90;;;;;;5033760;28;20182;-71
2022/01/18 05:07:48;;;;;;;53.27;23.20;;;8.30;99.90;;;;;;5034295;28;20218;-70
2022/01/18 05:10:16;;;;;;;49.87;24.63;;;8.20;99.90;;;;;;5033349;28;20621;-71
2022/01/18 05:12:46;;;;;;;43.33;22.57;;;8.30;99.90;;;;;;5033256;28;20261;-72
2022/01/18 05:15:41;;;;;;;54.57;23.93;;;8.30;99.90;;;;;;5033535;28;20169;-70
2022/01/18 05:23:28;;;;;;;51.17;22.83;;;8.30;99.90;;;;;;5032009;28;20212;-71
2022/01/18 05:25:54;;;;;;;58.90;23.50;;;8.20;99.90;;;;;;5032665;28;20312;-71
2022/01/18 05:28:19;;;;;;;53.00;24.50;;;8.20;99.90;;;;;;5033304;28;20219;-71
2022/01/18 05:30:45;;;;;;;48.67;23.43;;;8.00;99.90;;;;;;5032794;28;20170;-71
2022/01/18 05:33:10;;;;;;;53.10;24.03;;;8.00;99.90;;;;;;5033044;28;20174;-71
2022/01/18 05:35:37;;;;;;;56.70;25.33;;;7.90;99.90;;;;;;5032879;28;20174;-71
2022/01/18 05:38:04;;;;;;;50.43;24.50;;;7.80;99.90;;;;;;5033081;28;20196;-70
2022/01/18 05:40:30;;;;;;;57.07;26.03;;;7.80;99.90;;;;;;5033039;28;20177;-70
2022/01/18 05:42:56;;;;;;;63.63;24.67;;;7.80;99.90;;;;;;5032964;28;20170;-71
2022/01/18 05:45:22;;;;;;;60.13;24.73;;;7.80;99.90;;;;;;5032506;28;20204;-70
2022/01/18 05:47:48;;;;;;;63.50;24.80;;;7.60;99.90;;;;;;5032493;28;20201;-71
2022/01/18 05:50:14;;;;;;;61.73;24.80;;;7.50;99.90;;;;;;5032998;28;20744;-70
2022/01/18 05:52:40;;;;;;;52.80;22.47;;;7.60;99.90;;;;;;5032224;28;20177;-71
2022/01/18 05:55:07;;;;;;;43.43;20.67;;;7.60;99.90;;;;;;5032303;28;20178;-71
2022/01/18 05:57:33;;;;;;;48.73;21.27;;;7.50;99.90;;;;;;5032912;28;20632;-71
2022/01/18 06:00:05;;;;;;;44.80;21.00;;;7.50;99.90;;;;;;5032089;28;20174;-71
2022/01/18 06:02:44;;;;;;;50.30;22.10;;;7.50;99.90;;;;;;5032719;28;20422;-71
2022/01/18 06:07:55;;;;;;;53.57;22.27;;;7.70;99.90;;;;;;5032656;28;20236;-72
2022/01/18 06:10:21;;;;;;;56.67;22.73;;;7.70;99.90;;;;;;5032366;28;20221;-72
2022/01/18 06:12:46;;;;;;;51.07;23.30;;;7.70;99.90;;;;;;5032165;28;20174;-72
2022/01/18 06:15:12;;;;;;;48.90;22.13;;;7.80;99.90;;;;;;5031725;28;20275;-70
2022/01/18 06:17:40;;;;;;;49.73;21.27;;;8.00;99.90;;;;;;5031058;28;20178;-71
2022/01/18 06:20:07;;;;;;;54.50;22.97;;;8.00;99.90;;;;;;5031689;28;20288;-71
2022/01/18 06:22:33;;;;;;;50.63;23.07;;;8.10;99.90;;;;;;5032192;28;20302;-70
2022/01/18 06:24:59;;;;;;;55.47;23.60;;;7.90;99.90;;;;;;5031772;28;20221;-72
2022/01/18 06:27:25;;;;;;;53.80;24.40;;;8.00;99.90;;;;;;5031407;28;20287;-71
2022/01/18 06:29:50;;;;;;;55.50;23.00;;;7.90;99.90;;;;;;5032380;28;20426;-71
2022/01/18 06:32:16;;;;;;;59.73;25.57;;;7.70;99.90;;;;;;5032411;28;20169;-72
2022/01/18 06:34:42;;;;;;;56.07;24.03;;;7.60;99.90;;;;;;5034183;28;20205;-71
2022/01/18 06:37:07;;;;;;;49.67;23.23;;;7.50;99.90;;;;;;5036210;28;20174;-71
2022/01/18 06:39:33;;;;;;;62.00;24.97;;;7.50;99.90;;;;;;5035427;28;20254;-72
2022/01/18 06:41:59;;;;;;;56.00;24.83;;;7.50;99.90;;;;;;5035173;28;20639;-72
2022/01/18 06:44:25;;;;;;;54.23;25.40;;;7.60;99.90;;;;;;5035583;28;20258;-72
2022/01/18 06:46:52;;;;;;;61.70;25.43;;;7.60;99.90;;;;;;5035538;28;20181;-71
2022/01/18 06:49:17;;;;;;;62.87;25.50;;;7.70;99.90;;;;;;5035783;28;20723;-71
2022/01/18 06:51:43;;;;;;;52.10;23.00;;;7.60;99.90;;;;;;5033516;28;20170;-72
2022/01/18 06:54:14;;;;;;;47.83;20.83;;;7.50;99.90;;;;;;5035751;28;20341;-72
2022/01/18 06:56:44;;;;;;;49.57;21.07;;;7.30;99.90;;;;;;5035062;28;20228;-71
2022/01/18 06:59:09;;;;;;;40.43;18.23;;;7.20;99.90;;;;;;5035197;28;20273;-71
2022/01/18 07:01:35;;;;;;;32.33;16.00;;;7.10;99.90;;;;;;5035246;28;20213;-72
2022/01/18 07:04:01;;;;;;;36.97;16.77;;;7.00;99.90;;;;;;5033734;28;20264;-71
2022/01/18 07:06:27;;;;;;;44.93;18.50;;;7.00;99.90;;;;;;5034472;28;20174;-70
2022/01/18 07:08:53;;;;;;;46.77;21.57;;;7.00;99.90;;;;;;5033731;28;20239;-71
2022/01/18 07:11:20;;;;;;;48.77;22.93;;;7.10;99.90;;;;;;5035029;28;20182;-71
2022/01/18 07:13:45;;;;;;;55.93;23.60;;;7.30;99.90;;;;;;5034304;28;20170;-73
2022/01/18 07:16:11;;;;;;;53.47;21.30;;;7.20;99.90;;;;;;5034324;28;20189;-71
2022/01/18 07:18:37;;;;;;;45.60;20.43;;;7.10;99.90;;;;;;5034415;28;20178;-70
2022/01/18 07:21:03;;;;;;;41.67;19.17;;;7.20;99.90;;;;;;5033194;28;20174;-71
2022/01/18 07:23:28;;;;;;;35.20;16.50;;;7.10;99.90;;;;;;5033937;28;20301;-72
2022/01/18 07:25:54;;;;;;;30.03;14.30;;;7.10;99.90;;;;;;5033557;28;20248;-71
2022/01/18 07:28:20;;;;;;;40.97;15.43;;;7.10;99.90;;;;;;5034190;28;20312;-72
2022/01/18 07:30:47;;;;;;;38.30;16.63;;;7.10;99.90;;;;;;5033869;28;20228;-71
2022/01/18 07:33:13;;;;;;;36.50;17.63;;;7.20;99.90;;;;;;5034638;28;20251;-71
2022/01/18 07:35:40;;;;;;;45.80;19.17;;;7.20;99.90;;;;;;5034196;28;20189;-72
2022/01/18 07:38:06;;;;;;;37.33;18.50;;;7.30;99.90;;;;;;5035207;28;20256;-72
2022/01/18 07:40:33;;;;;;;41.97;18.53;;;7.40;99.90;;;;;;5033872;28;20186;-70
2022/01/18 07:43:01;;;;;;;35.73;17.23;;;7.40;99.90;;;;;;5033375;28;20715;-70
2022/01/18 07:45:29;;;;;;;40.50;18.77;;;7.40;99.90;;;;;;5034142;28;20182;-71
2022/01/18 07:47:55;;;;;;;41.17;19.10;;;7.50;99.90;;;;;;5034485;28;20237;-71
2022/01/18 07:50:21;;;;;;;39.73;18.43;;;7.50;99.90;;;;;;5034366;28;20544;-72
2022/01/18 07:52:48;;;;;;;39.47;18.47;;;7.50;99.90;;;;;;5034048;28;20177;-71
2022/01/18 07:55:16;;;;;;;40.67;19.03;;;7.40;99.90;;;;;;5033903;28;20236;-71
2022/01/18 07:57:43;;;;;;;40.43;18.00;;;7.40;99.90;;;;;;5034037;28;20166;-72
2022/01/18 08:00:14;;;;;;;43.70;18.87;;;7.40;99.90;;;;;;5033750;28;20170;-71
2022/01/18 08:02:41;;;;;;;45.77;19.03;;;7.50;99.90;;;;;;5033458;28;20268;-71
2022/01/18 08:05:08;;;;;;;44.00;19.37;;;7.60;99.90;;;;;;5036264;28;20686;-71
2022/01/18 08:07:34;;;;;;;43.30;19.83;;;7.60;99.90;;;;;;5040897;28;20272;-71
2022/01/18 08:10:01;;;;;;;56.83;20.40;;;7.60;99.90;;;;;;5043417;28;20189;-71
2022/01/18 08:12:27;;;;;;;41.50;18.80;;;7.60;99.90;;;;;;5048636;28;20177;-71
2022/01/18 08:14:59;;;;;;;58.80;19.03;;;7.70;99.90;;;;;;5048791;28;20232;-71
2022/01/18 08:17:25;;;;;;;57.03;20.20;;;7.70;99.90;;;;;;5048147;28;20265;-71
2022/01/18 08:19:50;;;;;;;57.87;20.90;;;7.90;99.90;;;;;;5050501;28;20708;-72
2022/01/18 08:22:16;;;;;;;60.87;19.80;;;8.00;99.90;;;;;;5046452;28;20277;-71
2022/01/18 08:24:42;;;;;;;58.00;18.13;;;8.00;99.90;;;;;;5052811;28;20302;-71
2022/01/18 08:27:08;;;;;;;60.37;19.10;;;7.80;99.90;;;;;;5051319;28;20304;-71
2022/01/18 08:29:35;;;;;;;62.13;19.20;;;7.80;99.90;;;;;;5048559;28;20198;-71
2022/01/18 08:32:00;;;;;;;60.80;19.53;;;7.80;99.90;;;;;;5035618;28;20193;-71
2022/01/18 08:34:26;;;;;;;63.77;19.97;;;7.70;99.90;;;;;;5036875;28;20253;-70
2022/01/18 08:36:52;;;;;;;48.77;17.40;;;7.70;99.90;;;;;;5032470;28;20197;-70
2022/01/18 08:39:18;;;;;;;40.53;16.90;;;7.70;99.90;;;;;;5037969;28;20176;-72
2022/01/18 08:41:44;;;;;;;53.30;19.13;;;7.60;99.90;;;;;;5036759;28;20182;-71
2022/01/18 08:44:10;;;;;;;67.13;29.23;;;7.70;99.90;;;;;;5036902;28;20305;-70
2022/01/18 08:46:35;;;;;;;64.33;24.27;;;7.80;99.90;;;;;;5046032;28;20280;-70
2022/01/18 08:49:09;;;;;;;49.53;20.70;;;7.80;99.90;;;;;;5035850;28;20715;-71
2022/01/18 08:51:35;;;;;;;65.57;21.80;;;7.80;99.90;;;;;;5031281;28;20174;-71
2022/01/18 08:54:03;;;;;;;58.93;20.73;;;7.90;99.90;;;;;;5039437;28;20185;-72
2022/01/18 08:56:29;;;;;;;59.30;20.13;;;7.80;99.90;;;;;;5036128;28;20177;-71
2022/01/18 08:58:56;;;;;;;52.10;19.77;;;7.70;99.90;;;;;;5044101;28;20207;-71
2022/01/18 09:01:22;;;;;;;62.17;24.20;;;7.80;99.90;;;;;;5036966;28;20644;-71
2022/01/18 09:03:50;;;;;;;70.97;22.23;;;7.90;99.90;;;;;;5043836;28;20316;-71
2022/01/18 09:06:17;;;;;;;63.77;24.93;;;8.00;99.90;;;;;;5035146;28;20178;-72
2022/01/18 09:08:42;;;;;;;55.87;20.50;;;8.10;99.90;;;;;;5037118;28;20260;-71
2022/01/18 09:11:11;;;;;;;56.10;19.83;;;8.10;99.90;;;;;;5040561;28;20363;-71
2022/01/18 09:13:38;;;;;;;68.20;25.67;;;8.00;99.90;;;;;;5051454;28;20188;-71
2022/01/18 09:16:09;;;;;;;59.90;22.53;;;8.10;99.90;;;;;;5034002;28;20182;-71
2022/01/18 09:18:35;;;;;;;88.40;37.63;;;8.10;99.90;;;;;;5034944;28;20629;-70
2022/01/18 09:21:01;;;;;;;60.77;19.90;;;8.30;99.90;;;;;;5034722;28;20645;-71
2022/01/18 09:23:29;;;;;;;55.73;19.50;;;8.50;99.90;;;;;;5040433;28;20251;-72
2022/01/18 09:25:55;;;;;;;57.57;19.87;;;8.60;99.90;;;;;;5034166;28;20290;-69
2022/01/18 09:28:20;;;;;;;59.53;21.10;;;8.60;99.90;;;;;;5032597;28;20678;-70
2022/01/18 09:30:46;;;;;;;63.43;20.67;;;8.70;99.90;;;;;;5035890;28;20707;-68
2022/01/18 09:33:11;;;;;;;64.43;21.83;;;8.60;99.90;;;;;;5034300;28;20184;-69
2022/01/18 09:35:38;;;;;;;59.87;21.40;;;8.70;99.90;;;;;;5031711;28;20177;-68
2022/01/18 09:38:08;;;;;;;59.73;20.63;;;8.80;99.90;;;;;;5035506;28;20192;-70
2022/01/18 09:40:37;;;;;;;57.20;20.60;;;9.00;99.90;;;;;;5037024;28;20256;-69
2022/01/18 09:43:08;;;;;;;54.23;19.27;;;9.20;99.90;;;;;;5031870;28;20221;-69
2022/01/18 09:45:35;;;;;;;58.30;21.90;;;9.20;99.90;;;;;;5042231;28;20253;-70
2022/01/18 09:48:02;;;;;;;47.63;21.17;;;9.30;99.90;;;;;;5032867;28;20637;-71
2022/01/18 09:50:33;;;;;;;61.67;21.40;;;9.10;99.90;;;;;;5037014;28;20657;-70
2022/01/18 09:52:59;;;;;;;49.97;19.73;;;8.80;99.90;;;;;;5032134;28;20178;-70
2022/01/18 09:55:30;;;;;;;60.60;20.00;;;8.90;99.90;;;;;;5042430;28;20174;-69
2022/01/18 09:57:59;;;;;;;66.03;20.67;;;9.10;99.90;;;;;;5046014;28;20184;-70
2022/01/18 10:00:27;;;;;;;52.87;20.00;;;9.20;99.90;;;;;;5033843;28;20652;-72
2022/01/18 10:02:53;;;;;;;50.33;20.57;;;9.40;99.90;;;;;;5032277;28;20255;-72
2022/01/18 10:05:21;;;;;;;52.20;21.50;;;9.60;99.90;;;;;;5031493;28;20677;-70
2022/01/18 10:07:55;;;;;;;42.17;20.63;;;9.80;99.90;;;;;;5033585;28;20267;-70
2022/01/18 10:10:21;;;;;;;50.17;20.73;;;9.50;99.90;;;;;;5031251;28;20183;-68
2022/01/18 10:12:55;;;;;;;41.77;17.80;;;9.30;99.90;;;;;;5038696;28;20178;-70
2022/01/18 10:15:21;;;;;;;48.40;20.30;;;8.80;99.90;;;;;;5034675;28;20180;-70
2022/01/18 10:17:47;;;;;;;48.80;20.27;;;8.50;99.90;;;;;;5034796;28;20643;-71
2022/01/18 10:20:20;;;;;;;45.93;17.57;;;8.60;99.90;;;;;;5032101;28;20244;-69
2022/01/18 10:22:53;;;;;;;46.87;19.33;;;8.50;99.90;;;;;;5046602;28;20209;-68
2022/01/18 10:25:25;;;;;;;44.17;16.50;;;8.70;99.90;;;;;;5034704;28;20550;-70
2022/01/18 10:27:53;;;;;;;58.77;23.07;;;8.60;99.90;;;;;;5034960;28;20197;-71
2022/01/18 10:30:38;;;;;;;51.57;19.47;;;8.80;99.90;;;;;;5036965;28;20686;-69
2022/01/18 10:33:18;;;;;;;50.30;17.40;;;8.90;99.90;;;;;;5029474;28;20181;-70
2022/01/18 10:36:02;;;;;;;54.33;18.90;;;8.90;99.90;;;;;;5040945;28;20200;-70
2022/01/18 10:38:28;;;;;;;59.93;23.50;;;9.10;99.90;;;;;;5032699;28;20185;-71
2022/01/18 10:40:54;;;;;;;55.20;22.57;;;9.10;99.90;;;;;;5046935;28;20181;-70
2022/01/18 10:43:30;;;;;;;60.70;22.50;;;9.10;99.90;;;;;;5039281;28;20296;-70
2022/01/18 10:46:13;;;;;;;48.50;20.67;;;9.20;99.90;;;;;;5030308;28;20205;-71
2022/01/18 10:48:47;;;;;;;52.07;22.10;;;9.10;99.90;;;;;;5043896;28;20188;-70
2022/01/18 10:51:30;;;;;;;48.33;21.97;;;9.20;99.90;;;;;;5038198;28;20234;-71
2022/01/18 10:54:01;;;;;;;50.07;21.00;;;9.30;99.90;;;;;;5034376;28;20174;-71
2022/01/18 10:56:40;;;;;;;46.40;19.90;;;9.40;99.90;;;;;;5030874;28;20254;-72
2022/01/18 10:59:07;;;;;;;52.23;20.10;;;9.50;99.90;;;;;;5039014;28;20177;-71
2022/01/18 11:01:33;;;;;;;51.50;21.03;;;9.70;99.90;;;;;;5035663;28;20633;-71
2022/01/18 11:04:15;;;;;;;44.83;19.03;;;9.80;99.90;;;;;;5041311;28;20212;-69
2022/01/18 11:06:56;;;;;;;51.87;18.20;;;9.80;99.90;;;;;;5034937;28;20273;-68
2022/01/18 11:09:22;;;;;;;39.87;18.37;;;10.00;99.90;;;;;;5031580;28;20650;-70
2022/01/18 11:11:48;;;;;;;38.23;16.60;;;9.60;99.90;;;;;;5045703;28;20181;-69
2022/01/18 11:14:17;;;;;;;38.23;16.93;;;9.50;99.90;;;;;;5050282;28;20184;-71
2022/01/18 11:16:45;;;;;;;33.57;15.07;;;9.60;99.90;;;;;;5051030;28;20180;-71
2022/01/18 11:21:49;;;;;;;27.73;12.73;;;9.90;99.90;;;;;;5054629;28;20180;-71
2022/01/18 11:24:16;;;;;;;28.73;13.50;;;9.70;99.90;;;;;;5054580;28;20310;-70
2022/01/18 11:26:44;;;;;;;28.63;11.80;;;9.60;99.90;;;;;;5054010;28;20279;-71
2022/01/18 11:29:11;;;;;;;26.63;12.33;;;9.60;99.90;;;;;;5054455;28;20165;-71
2022/01/18 11:31:37;;;;;;;49.73;23.03;;;9.90;99.90;;;;;;5054459;28;20165;-71
2022/01/18 11:34:05;;;;;;;26.90;12.13;;;10.00;99.90;;;;;;5054001;28;20193;-72
2022/01/18 11:36:38;;;;;;;24.03;10.30;;;10.10;99.90;;;;;;5054505;28;20243;-69
2022/01/18 11:39:11;;;;;;;32.93;12.63;;;10.00;99.90;;;;;;5055000;28;20169;-70
2022/01/18 11:41:37;;;;;;;26.43;10.60;;;9.90;99.90;;;;;;5054291;28;20272;-73
2022/01/18 11:44:26;;;;;;;14.30;5.80;;;9.90;99.90;;;;;;5053475;28;20208;-71
2022/01/18 11:46:57;;;;;;;11.70;4.67;;;9.80;99.90;;;;;;5054360;28;20201;-70
2022/01/18 11:49:24;;;;;;;9.47;3.03;;;9.80;99.90;;;;;;5053652;28;20204;-70
2022/01/18 11:51:54;;;;;;;9.10;3.37;;;9.90;99.90;;;;;;5054537;28;20173;-71
2022/01/18 11:57:19;;;;;;;9.00;3.23;;;10.90;99.90;;;;;;5054727;28;20645;-72
2022/01/18 11:59:45;;;;;;;10.03;5.40;;;11.50;99.90;;;;;;5053455;28;20478;-71
2022/01/18 12:02:11;;;;;;;4.53;2.77;;;12.10;99.90;;;;;;5052310;28;20173;-70
2022/01/18 12:07:06;;;;;;;6.83;3.00;;;12.70;99.90;;;;;;5053756;28;20189;-72
2022/01/18 12:09:40;;;;;;;8.37;3.00;;;13.10;99.90;;;;;;5054014;28;20264;-70
2022/01/18 12:12:48;;;;;;;9.67;4.77;;;13.40;99.10;;;;;;5053839;28;20177;-71
2022/01/18 12:15:22;;;;;;;8.07;4.70;;;13.50;98.00;;;;;;5053106;28;20188;-70
2022/01/18 12:18:01;;;;;;;7.60;3.10;;;13.40;98.00;;;;;;5053325;28;20178;-71
2022/01/18 12:20:42;;;;;;;4.43;2.57;;;13.30;97.90;;;;;;5053700;28;20173;-72
2022/01/18 12:23:43;;;;;;;10.00;4.20;;;13.30;97.60;;;;;;5053899;28;20170;-72
2022/01/18 12:34:30;;;;;;;7.43;3.20;;;12.80;98.70;;;;;;5050796;28;20177;-71
2022/01/18 12:37:20;;;;;;;7.10;2.80;;;12.60;99.00;;;;;;5051824;28;20238;-70
2022/01/18 12:39:55;;;;;;;12.60;3.20;;;12.20;99.50;;;;;;5034638;28;20567;-70
2022/01/18 12:45:23;;;;;;;6.80;3.13;;;11.30;99.90;;;;;;5051283;28;20299;-71
2022/01/18 12:47:59;;;;;;;11.33;3.77;;;11.10;99.90;;;;;;5049583;28;20234;-71
2022/01/18 12:50:34;;;;;;;12.47;4.03;;;11.00;99.90;;;;;;5051693;28;20765;-70
2022/01/18 12:53:24;;;;;;;10.10;3.77;;;10.60;99.90;;;;;;5050782;28;20172;-70
2022/01/18 12:55:55;;;;;;;8.90;4.07;;;10.30;99.90;;;;;;5043233;28;20196;-70
2022/01/18 12:58:38;;;;;;;8.27;2.97;;;10.40;99.90;;;;;;5051058;28;20654;-70
2022/01/18 13:01:04;;;;;;;6.67;3.27;;;10.30;99.90;;;;;;5051187;28;20282;-70
2022/01/18 13:03:37;;;;;;;11.30;3.97;;;10.20;99.90;;;;;;5053009;28;20313;-71
2022/01/18 13:06:12;;;;;;;12.33;3.83;;;10.10;99.90;;;;;;5053456;28;20537;-70
2022/01/18 13:08:40;;;;;;;12.13;4.93;;;10.10;99.90;;;;;;5053332;28;20165;-71
2022/01/18 13:11:05;;;;;;;11.73;4.37;;;9.80;99.90;;;;;;5052508;28;20633;-71
2022/01/18 13:13:33;;;;;;;12.10;4.17;;;9.50;99.90;;;;;;5052562;28;20181;-70
2022/01/18 13:22:56;;;;;;;8.47;4.97;;;9.30;99.90;;;;;;5052680;28;20174;-70
2022/01/18 13:27:29;;;;;;;12.60;4.27;;;9.50;99.90;;;;;;5052643;28;20673;-71
2022/01/18 13:30:10;;;;;;;15.37;5.37;;;9.50;99.90;;;;;;5051440;28;20244;-70
2022/01/18 13:32:39;;;;;;;11.33;4.43;;;9.40;99.90;;;;;;5052727;28;20555;-71
2022/01/18 13:35:05;;;;;;;22.83;5.83;;;9.30;99.90;;;;;;5051920;28;20675;-71
2022/01/18 13:37:33;;;;;;;9.83;4.83;;;9.20;99.90;;;;;;5052531;28;20169;-69
2022/01/18 13:40:06;;;;;;;12.30;5.20;;;9.20;99.90;;;;;;5053001;28;20177;-70
2022/01/18 13:42:40;;;;;;;21.10;9.43;;;9.20;99.90;;;;;;5051799;28;20169;-72
2022/01/18 13:45:08;;;;;;;10.90;5.30;;;9.40;99.90;;;;;;5052261;28;20269;-70
2022/01/18 13:47:53;;;;;;;11.23;4.97;;;9.50;99.90;;;;;;5052353;28;20174;-71
2022/01/18 13:50:36;;;;;;;23.37;12.07;;;9.60;99.90;;;;;;5050453;28;20656;-70
2022/01/18 13:53:25;;;;;;;11.30;4.00;;;9.70;99.90;;;;;;5051046;28;20255;-69
2022/01/18 13:55:56;;;;;;;12.17;5.50;;;9.80;99.90;;;;;;5052114;28;20219;-69
2022/01/18 13:58:28;;;;;;;8.90;3.90;;;9.90;99.90;;;;;;5051519;28;20604;-69
2022/01/18 14:01:28;;;;;;;10.47;4.00;;;10.10;99.90;;;;;;5052680;28;20236;-70
2022/01/18 14:03:56;;;;;;;10.57;4.10;;;9.90;99.90;;;;;;5051063;28;20217;-68
2022/01/18 14:06:32;;;;;;;10.53;4.30;;;9.60;99.90;;;;;;5052682;28;20174;-71
2022/01/18 14:09:01;;;;;;;11.77;4.70;;;9.60;99.90;;;;;;5052355;28;20252;-71
2022/01/18 14:11:36;;;;;;;9.23;4.17;;;9.60;99.90;;;;;;5052094;28;20173;-70
2022/01/18 14:14:17;;;;;;;13.60;4.40;;;9.60;99.90;;;;;;5050856;28;20161;-70
2022/01/18 14:16:53;;;;;;;12.63;4.40;;;9.70;99.90;;;;;;5052245;28;20246;-70
2022/01/18 14:19:40;;;;;;;11.83;4.30;;;9.70;99.90;;;;;;5051675;28;20517;-69
2022/01/18 14:22:17;;;;;;;13.60;4.40;;;9.60;99.90;;;;;;5052437;28;20267;-68
2022/01/18 14:24:48;;;;;;;14.07;4.90;;;9.60;99.90;;;;;;5051176;28;20276;-70
2022/01/18 14:27:35;;;;;;;12.87;4.00;;;9.50;99.90;;;;;;5051704;28;20208;-71
2022/01/18 14:30:08;;;;;;;14.70;5.10;;;9.60;99.90;;;;;;5050714;28;20189;-71
2022/01/18 14:32:41;;;;;;;14.97;4.13;;;9.60;99.90;;;;;;5051670;28;20629;-71
2022/01/18 14:35:18;;;;;;;12.30;4.13;;;9.40;99.90;;;;;;5051856;28;20478;-70